Time;durP1;ratioP1;P1;durP2;ratioP2;P2;SDS_P1;SDS_P2;PMS_P1;PMS_P2;Temp;Humidity;BMP_temperature;BMP_pressure;BME280_temperature;BME280_humidity;BME280_pressure;Samples;Min_cycle;Max_cycle;Signal;HPM_P1;HPM_P2
2022/06/23 00:02:19;;;;;;;2.22;1.15;;;16.00;99.90;;;;;;5019331;28;20065;-70
2022/06/23 00:04:46;;;;;;;2.97;1.10;;;16.00;99.90;;;;;;5020228;28;20030;-69
2022/06/23 00:07:15;;;;;;;2.38;1.20;;;16.00;99.90;;;;;;5019625;28;20024;-69
2022/06/23 00:09:44;;;;;;;1.10;0.93;;;16.00;99.90;;;;;;5019812;28;20022;-70
2022/06/23 00:12:19;;;;;;;1.63;1.20;;;16.00;99.90;;;;;;5020718;28;20030;-68
2022/06/23 00:14:45;;;;;;;;;;;16.00;99.90;;;;;;5020347;28;20057;-69
2022/06/23 00:17:22;;;;;;;3.25;1.52;;;15.90;99.90;;;;;;5020787;28;19916;-68
2022/06/23 00:19:48;;;;;;;3.15;1.85;;;15.90;99.90;;;;;;5020673;28;20041;-70
2022/06/23 00:22:17;;;;;;;2.08;1.17;;;15.90;99.90;;;;;;5021130;28;20030;-68
2022/06/23 00:24:44;;;;;;;2.75;1.70;;;15.90;99.90;;;;;;5018929;28;20029;-69
2022/06/23 00:27:16;;;;;;;3.33;1.90;;;15.90;99.90;;;;;;5020342;28;20033;-70
2022/06/23 00:29:44;;;;;;;2.88;1.42;;;15.80;99.90;;;;;;5020886;28;20046;-70
2022/06/23 00:32:10;;;;;;;3.50;1.33;;;15.80;99.90;;;;;;5020002;28;20021;-69
2022/06/23 00:34:59;;;;;;;6.38;1.50;;;15.80;99.90;;;;;;5020251;28;20077;-69
2022/06/23 00:37:25;;;;;;;3.63;1.58;;;15.80;99.90;;;;;;5019591;28;20048;-70
2022/06/23 00:40:07;;;;;;;2.08;1.73;;;15.80;99.90;;;;;;5018548;28;20480;-68
2022/06/23 00:42:40;;;;;;;3.65;1.70;;;15.70;99.90;;;;;;5018785;28;20473;-68
2022/06/23 00:45:12;;;;;;;2.15;1.15;;;15.70;99.90;;;;;;5021381;28;20089;-68
2022/06/23 00:47:43;;;;;;;3.95;1.90;;;15.70;99.90;;;;;;5019920;28;20033;-68
2022/06/23 00:50:27;;;;;;;1.92;1.30;;;15.60;99.90;;;;;;5019274;28;20030;-71
2022/06/23 00:53:01;;;;;;;2.13;1.40;;;15.60;99.90;;;;;;5020314;28;20034;-67
2022/06/23 00:55:29;;;;;;;;;;;15.50;99.90;;;;;;5019860;28;20033;-68
2022/06/23 00:58:01;;;;;;;3.25;1.67;;;15.50;99.90;;;;;;5019870;28;20762;-69
2022/06/23 01:00:39;;;;;;;2.72;1.40;;;15.40;99.90;;;;;;5020368;28;20030;-67
2022/06/23 01:03:08;;;;;;;3.13;1.92;;;15.50;99.90;;;;;;5019132;28;20038;-69
2022/06/23 01:05:54;;;;;;;3.97;2.05;;;15.50;99.90;;;;;;5021282;28;20065;-69
2022/06/23 01:08:35;;;;;;;3.17;1.17;;;15.40;99.90;;;;;;5019908;28;20038;-68
2022/06/23 01:11:12;;;;;;;5.85;2.28;;;15.40;99.90;;;;;;5020436;28;20509;-69
2022/06/23 01:14:06;;;;;;;3.25;1.60;;;15.40;99.90;;;;;;5019288;28;20030;-69
2022/06/23 01:16:47;;;;;;;2.35;1.85;;;15.40;99.90;;;;;;5019138;28;20030;-69
2022/06/23 01:19:42;;;;;;;5.63;2.20;;;15.40;99.90;;;;;;5020678;28;20441;-67
2022/06/23 01:22:15;;;;;;;;;;;15.40;99.90;;;;;;5020867;28;20033;-69
2022/06/23 01:24:54;;;;;;;3.17;1.67;;;15.40;99.90;;;;;;5019952;28;19905;-70
2022/06/23 01:27:38;;;;;;;2.58;1.60;;;15.30;99.90;;;;;;5019395;28;20029;-68
2022/06/23 01:30:09;;;;;;;2.63;1.75;;;15.30;99.90;;;;;;5019666;28;20057;-68
2022/06/23 01:32:45;;;;;;;2.70;1.73;;;15.30;99.90;;;;;;5020674;28;20030;-70
2022/06/23 01:35:16;;;;;;;2.13;1.30;;;15.30;99.90;;;;;;5021830;28;20022;-69
2022/06/23 01:37:49;;;;;;;4.28;1.90;;;15.30;99.90;;;;;;5021480;28;20053;-69
2022/06/23 01:40:27;;;;;;;4.65;2.53;;;15.20;99.90;;;;;;5021984;28;20786;-69
2022/06/23 01:42:59;;;;;;;3.50;1.88;;;15.30;99.90;;;;;;5021030;28;20044;-69
2022/06/23 01:45:57;;;;;;;3.45;1.50;;;15.30;99.90;;;;;;5021803;28;20029;-69
2022/06/23 01:49:01;;;;;;;4.53;2.28;;;15.20;99.90;;;;;;5021948;28;20180;-70
2022/06/23 01:51:30;;;;;;;3.30;1.90;;;15.20;99.90;;;;;;5021323;28;20049;-68
2022/06/23 01:54:21;;;;;;;2.95;1.75;;;15.20;99.90;;;;;;5021426;28;20041;-69
2022/06/23 01:57:17;;;;;;;3.85;2.17;;;15.10;99.90;;;;;;5020833;28;20088;-68
2022/06/23 01:59:45;;;;;;;3.33;1.98;;;15.10;99.90;;;;;;5019605;28;20061;-70
2022/06/23 02:02:19;;;;;;;3.33;1.70;;;15.10;99.90;;;;;;5019616;28;20049;-68
2022/06/23 02:05:18;;;;;;;4.25;1.80;;;15.10;99.90;;;;;;5018871;28;20061;-68
2022/06/23 02:07:57;;;;;;;3.40;1.85;;;15.00;99.90;;;;;;5021819;28;20034;-67
2022/06/23 02:11:01;;;;;;;3.58;1.60;;;15.00;99.90;;;;;;5021107;28;21031;-69
2022/06/23 02:13:34;;;;;;;2.90;1.77;;;15.00;99.90;;;;;;5020250;28;20072;-67
2022/06/23 02:16:12;;;;;;;2.67;1.48;;;14.90;99.90;;;;;;5021590;28;20050;-68
2022/06/23 02:19:05;;;;;;;6.63;1.88;;;14.90;99.90;;;;;;5021419;28;20105;-69
2022/06/23 02:21:43;;;;;;;3.15;1.73;;;14.90;99.90;;;;;;5024668;28;20030;-68
2022/06/23 02:24:17;;;;;;;4.80;1.80;;;14.90;99.90;;;;;;5024457;28;20083;-70
2022/06/23 02:26:59;;;;;;;;;;;14.80;99.90;;;;;;5025250;28;20037;-70
2022/06/23 02:29:30;;;;;;;3.60;1.98;;;14.80;99.90;;;;;;5024857;28;19928;-70
2022/06/23 02:32:11;;;;;;;4.68;1.63;;;14.80;99.90;;;;;;5023895;28;20030;-70
2022/06/23 02:34:45;;;;;;;3.45;2.20;;;14.80;99.90;;;;;;5024849;28;20057;-71
2022/06/23 02:37:48;;;;;;;4.50;2.27;;;14.80;99.90;;;;;;5024504;28;20022;-70
2022/06/23 02:40:22;;;;;;;4.22;2.28;;;14.80;99.90;;;;;;5024133;28;20037;-71
2022/06/23 02:42:54;;;;;;;4.30;2.75;;;14.80;99.90;;;;;;5023005;28;20033;-71
2022/06/23 02:45:48;;;;;;;4.65;2.42;;;14.70;99.90;;;;;;5024042;28;20025;-71
2022/06/23 02:48:41;;;;;;;3.58;1.90;;;14.70;99.90;;;;;;5024079;28;20025;-70
2022/06/23 02:51:20;;;;;;;4.28;2.65;;;14.70;99.90;;;;;;5024293;28;20022;-71
2022/06/23 02:54:22;;;;;;;4.95;2.65;;;14.70;99.90;;;;;;5024210;28;20026;-70
2022/06/23 02:57:00;;;;;;;4.38;2.35;;;14.70;99.90;;;;;;5023831;28;20030;-69
2022/06/23 02:59:35;;;;;;;3.13;2.30;;;14.60;99.90;;;;;;5023989;28;20497;-69
2022/06/23 03:02:08;;;;;;;3.63;2.22;;;14.70;99.90;;;;;;5023656;28;20034;-69
2022/06/23 03:04:56;;;;;;;5.60;2.50;;;14.60;99.90;;;;;;5024627;28;20041;-70
2022/06/23 03:07:45;;;;;;;4.97;2.53;;;14.60;99.90;;;;;;5023881;28;20428;-69
2022/06/23 03:10:32;;;;;;;10.45;3.47;;;14.60;99.90;;;;;;5023876;28;20018;-71
2022/06/23 03:13:08;;;;;;;4.68;2.65;;;14.50;99.90;;;;;;5023714;28;20038;-70
2022/06/23 03:15:50;;;;;;;5.43;2.40;;;14.50;99.90;;;;;;5023692;28;20125;-71
2022/06/23 03:18:21;;;;;;;4.25;2.63;;;14.50;99.90;;;;;;5023416;28;20030;-69
2022/06/23 03:21:00;;;;;;;4.45;2.38;;;14.50;99.90;;;;;;5023726;28;20029;-70
2022/06/23 03:24:01;;;;;;;8.63;2.55;;;14.50;99.90;;;;;;5023178;28;20037;-70
2022/06/23 03:26:38;;;;;;;4.32;2.47;;;14.50;99.90;;;;;;5038383;28;20289;-69
2022/06/23 03:29:12;;;;;;;4.60;2.25;;;14.50;99.90;;;;;;5023402;28;20072;-70
2022/06/23 03:31:40;;;;;;;3.95;2.50;;;14.50;99.90;;;;;;5023167;28;20411;-70
2022/06/23 03:34:29;;;;;;;8.10;3.05;;;14.40;99.90;;;;;;5023691;28;20042;-70
2022/06/23 03:37:18;;;;;;;4.15;2.47;;;14.40;99.90;;;;;;5023285;28;20038;-70
2022/06/23 03:43:00;;;;;;;4.78;2.90;;;14.40;99.90;;;;;;5023095;28;20033;-69
2022/06/23 03:45:30;;;;;;;5.80;2.78;;;14.40;99.90;;;;;;5023082;28;20034;-70
2022/06/23 03:48:00;;;;;;;5.13;2.97;;;14.40;99.90;;;;;;5023076;28;20018;-70
2022/06/23 03:50:28;;;;;;;4.53;2.25;;;14.40;99.90;;;;;;5022657;28;20036;-70
2022/06/23 03:53:21;;;;;;;4.47;2.65;;;14.50;99.90;;;;;;5023258;28;20048;-70
2022/06/23 03:55:55;;;;;;;4.63;2.67;;;14.50;99.90;;;;;;5023475;28;20029;-70
2022/06/23 03:58:27;;;;;;;4.63;2.67;;;14.50;99.90;;;;;;5022577;28;20041;-69
2022/06/23 04:01:03;;;;;;;6.10;2.78;;;14.50;99.90;;;;;;5023213;28;20022;-69
2022/06/23 04:03:44;;;;;;;5.43;2.92;;;14.50;99.90;;;;;;5022412;28;20903;-68
2022/06/23 04:06:34;;;;;;;5.80;2.95;;;14.50;99.90;;;;;;5022858;28;20022;-70
2022/06/23 04:09:01;;;;;;;4.95;2.75;;;14.50;99.90;;;;;;5022983;28;20148;-69
2022/06/23 04:11:46;;;;;;;5.68;2.88;;;14.50;99.90;;;;;;5022168;28;20026;-70
2022/06/23 04:14:38;;;;;;;7.50;2.50;;;14.50;99.90;;;;;;5022528;28;20041;-68
2022/06/23 04:17:38;;;;;;;5.13;2.60;;;14.50;99.90;;;;;;5020631;28;20030;-70
2022/06/23 04:20:45;;;;;;;8.80;3.05;;;14.50;99.90;;;;;;5021394;28;20037;-70
2022/06/23 04:23:42;;;;;;;5.75;3.00;;;14.60;99.90;;;;;;5021402;28;20025;-69
2022/06/23 04:26:44;;;;;;;4.55;2.20;;;14.60;99.90;;;;;;5021066;28;20034;-70
2022/06/23 04:29:16;;;;;;;9.25;3.67;;;14.50;99.90;;;;;;5020278;28;20030;-70
2022/06/23 04:32:05;;;;;;;5.72;2.88;;;14.60;99.90;;;;;;5017343;28;20061;-70
2022/06/23 04:35:07;;;;;;;4.13;2.55;;;14.60;99.90;;;;;;5022194;28;20057;-70
2022/06/23 04:37:57;;;;;;;6.53;2.78;;;14.60;99.90;;;;;;5022457;28;20034;-68
2022/06/23 04:40:28;;;;;;;4.38;2.80;;;14.70;99.90;;;;;;5021402;28;20025;-69
2022/06/23 04:43:14;;;;;;;7.82;3.67;;;14.70;99.90;;;;;;5021936;28;21065;-69
2022/06/23 04:46:04;;;;;;;3.92;2.45;;;14.70;99.90;;;;;;5020996;28;20052;-71
2022/06/23 04:48:38;;;;;;;8.85;3.25;;;14.80;99.90;;;;;;5022066;28;20060;-68
2022/06/23 04:51:06;;;;;;;;;;;14.80;99.90;;;;;;5022708;28;20054;-69
2022/06/23 04:53:37;;;;;;;4.65;2.72;;;14.90;99.90;;;;;;5021872;28;19959;-69
2022/06/23 04:56:18;;;;;;;4.35;2.75;;;14.90;99.90;;;;;;5022810;28;20076;-70
2022/06/23 04:58:54;;;;;;;6.88;3.47;;;14.90;99.90;;;;;;5021713;28;20026;-69
2022/06/23 05:01:24;;;;;;;5.18;2.88;;;15.00;99.90;;;;;;5021577;28;20025;-70
2022/06/23 05:03:55;;;;;;;5.80;2.92;;;15.10;99.90;;;;;;5021705;28;20053;-68
2022/06/23 05:06:21;;;;;;;5.47;3.25;;;15.10;99.90;;;;;;5021866;28;20105;-69
2022/06/23 05:08:48;;;;;;;5.53;3.00;;;15.10;99.90;;;;;;5022253;28;20022;-70
2022/06/23 05:11:26;;;;;;;7.32;3.47;;;15.20;99.90;;;;;;5021916;28;20116;-71
2022/06/23 05:14:15;;;;;;;6.68;3.58;;;15.30;99.90;;;;;;5021763;28;20091;-69
2022/06/23 05:16:45;;;;;;;5.25;2.83;;;15.30;99.90;;;;;;5020155;28;20033;-69
2022/06/23 05:19:28;;;;;;;6.00;3.00;;;15.40;99.90;;;;;;5019458;28;20375;-69
2022/06/23 05:22:17;;;;;;;6.95;3.05;;;15.40;99.90;;;;;;5017780;28;20045;-69
2022/06/23 05:24:45;;;;;;;3.75;2.55;;;15.50;99.90;;;;;;5020014;28;20194;-69
2022/06/23 05:27:28;;;;;;;7.25;3.75;;;15.60;99.90;;;;;;5019635;28;20022;-68
2022/06/23 05:30:27;;;;;;;8.35;3.53;;;15.60;99.90;;;;;;5019562;28;20107;-69
2022/06/23 05:33:06;;;;;;;4.70;3.17;;;15.70;99.90;;;;;;5021071;28;20029;-68
2022/06/23 05:35:56;;;;;;;5.22;3.22;;;15.80;99.90;;;;;;5020511;28;20116;-67
2022/06/23 05:38:46;;;;;;;4.20;2.75;;;15.80;99.90;;;;;;5019154;28;20061;-69
2022/06/23 05:41:38;;;;;;;4.05;2.33;;;15.90;99.90;;;;;;5020769;28;20171;-68
2022/06/23 05:44:30;;;;;;;6.50;3.10;;;15.90;99.90;;;;;;5017431;28;20068;-69
2022/06/23 05:47:08;;;;;;;4.13;2.83;;;16.00;99.90;;;;;;5018393;28;20119;-68
2022/06/23 05:49:41;;;;;;;6.43;3.42;;;16.00;99.90;;;;;;5018591;28;20138;-69
2022/06/23 05:52:19;;;;;;;10.60;3.42;;;16.10;99.90;;;;;;5018027;28;20049;-69
2022/06/23 05:54:54;;;;;;;4.22;2.97;;;16.20;99.90;;;;;;5019476;28;20183;-69
2022/06/23 05:57:33;;;;;;;7.07;3.35;;;16.20;99.90;;;;;;5022998;28;20032;-67
2022/06/23 06:00:10;;;;;;;4.80;2.92;;;16.30;99.90;;;;;;5023230;28;20057;-69
2022/06/23 06:02:48;;;;;;;4.68;2.47;;;16.40;99.90;;;;;;5022725;28;20421;-68
2022/06/23 06:05:35;;;;;;;7.43;3.25;;;16.50;99.90;;;;;;5020110;28;20030;-72
2022/06/23 06:08:06;;;;;;;10.35;3.28;;;16.50;99.90;;;;;;5024570;28;20032;-72
2022/06/23 06:10:34;;;;;;;7.05;3.75;;;16.60;99.90;;;;;;5024388;28;20129;-70
2022/06/23 06:13:02;;;;;;;6.00;3.25;;;16.70;99.90;;;;;;5023473;28;20037;-69
2022/06/23 06:15:39;;;;;;;7.93;3.10;;;16.80;99.90;;;;;;5024132;28;20037;-70
2022/06/23 06:18:07;;;;;;;4.65;2.75;;;16.80;99.90;;;;;;5022253;28;20034;-70
2022/06/23 06:20:34;;;;;;;4.60;2.85;;;16.90;99.90;;;;;;5024646;28;20084;-70
2022/06/23 06:23:14;;;;;;;5.93;3.63;;;16.90;99.90;;;;;;5023444;28;20018;-71
2022/06/23 06:25:50;;;;;;;9.35;3.92;;;17.10;99.90;;;;;;5024616;28;20030;-69
2022/06/23 06:28:26;;;;;;;7.57;3.65;;;17.30;99.90;;;;;;5022901;28;20060;-70
2022/06/23 06:31:23;;;;;;;12.63;3.85;;;17.40;99.90;;;;;;5021734;28;20018;-70
2022/06/23 06:34:14;;;;;;;6.32;3.63;;;17.50;99.90;;;;;;5022299;28;20124;-69
2022/06/23 06:36:52;;;;;;;6.03;3.25;;;17.60;99.90;;;;;;5022680;28;20045;-68
2022/06/23 06:39:52;;;;;;;6.72;3.08;;;17.70;99.90;;;;;;5022603;28;20016;-70
2022/06/23 06:42:35;;;;;;;7.57;3.10;;;17.80;99.90;;;;;;5022221;28;20100;-69
2022/06/23 06:45:08;;;;;;;6.43;3.63;;;17.90;99.90;;;;;;5021784;28;20026;-69
2022/06/23 06:47:45;;;;;;;5.87;3.17;;;18.00;99.90;;;;;;5023300;28;20028;-69
2022/06/23 06:50:32;;;;;;;5.18;2.97;;;18.10;99.90;;;;;;5020665;28;20071;-70
2022/06/23 06:53:05;;;;;;;5.97;3.17;;;18.20;99.90;;;;;;5018372;28;20127;-69
2022/06/23 06:55:48;;;;;;;5.55;3.15;;;18.30;99.90;;;;;;5023321;28;20022;-68
2022/06/23 06:58:42;;;;;;;6.97;3.33;;;18.50;99.90;;;;;;5020864;28;20069;-70
2022/06/23 07:01:30;;;;;;;;;;;18.60;99.90;;;;;;5024040;28;20038;-69
2022/06/23 07:04:21;;;;;;;5.20;2.60;;;18.70;99.90;;;;;;5028592;28;19921;-68
2022/06/23 07:06:57;;;;;;;7.90;2.70;;;18.80;99.90;;;;;;5021775;28;20037;-69
2022/06/23 07:09:39;;;;;;;6.13;2.92;;;19.00;99.90;;;;;;5022293;28;20041;-71
2022/06/23 07:12:39;;;;;;;5.43;2.88;;;19.10;99.90;;;;;;5022705;28;20021;-72
2022/06/23 07:15:26;;;;;;;5.68;3.20;;;19.20;99.90;;;;;;5021135;28;20497;-69
2022/06/23 07:18:04;;;;;;;5.55;2.80;;;19.30;99.90;;;;;;5020119;28;20030;-71
2022/06/23 07:20:38;;;;;;;5.72;2.63;;;19.40;99.90;;;;;;5014166;28;20178;-70
2022/06/23 07:23:24;;;;;;;4.40;2.50;;;19.50;99.90;;;;;;5023694;28;20342;-70
2022/06/23 07:26:18;;;;;;;4.85;2.40;;;19.60;99.90;;;;;;5023371;28;20053;-69
2022/06/23 07:29:23;;;;;;;3.88;2.50;;;19.70;99.90;;;;;;5019979;28;20062;-70
2022/06/23 07:32:29;;;;;;;6.32;2.67;;;19.90;99.90;;;;;;5020270;28;20140;-68
2022/06/23 07:38:26;;;;;;;7.38;2.42;;;20.10;99.90;;;;;;5050269;28;20033;-70
2022/06/23 07:41:18;;;;;;;4.93;2.33;;;20.30;99.90;;;;;;5033219;28;20653;-70
2022/06/23 07:44:57;;;;;;;2.65;1.48;;;20.40;99.90;;;;;;5029927;28;20116;-69
2022/06/23 07:47:18;;;;;;;2.08;1.50;;;20.60;99.90;;;;;;5013364;28;20038;-71
2022/06/23 07:49:47;;;;;;;4.82;2.47;;;20.70;99.90;;;;;;5022252;28;20032;-71
2022/06/23 07:52:18;;;;;;;5.30;2.20;;;20.80;99.90;;;;;;5021836;28;20034;-69
2022/06/23 07:55:00;;;;;;;4.60;2.38;;;20.90;99.90;;;;;;5020753;28;20042;-69
2022/06/23 07:57:31;;;;;;;3.47;2.08;;;21.10;99.90;;;;;;5020394;28;20072;-70
2022/06/23 08:00:06;;;;;;;3.33;1.90;;;21.20;99.90;;;;;;5019841;28;20057;-72
2022/06/23 08:03:03;;;;;;;2.58;2.08;;;21.30;99.90;;;;;;5020989;28;20196;-69
2022/06/23 08:06:08;;;;;;;3.00;1.88;;;21.40;99.90;;;;;;5020526;28;20041;-71
2022/06/23 08:08:49;;;;;;;3.60;2.03;;;21.50;99.90;;;;;;5014681;28;20037;-70
2022/06/23 08:14:16;;;;;;;3.03;1.85;;;21.70;99.90;;;;;;5022206;28;20052;-72
2022/06/23 08:16:52;;;;;;;3.55;2.05;;;21.90;99.90;;;;;;5020192;28;20025;-71
2022/06/23 08:20:00;;;;;;;7.32;1.88;;;21.90;99.90;;;;;;5021107;28;20026;-69
2022/06/23 08:22:56;;;;;;;3.13;2.03;;;22.00;99.90;;;;;;5018948;28;20041;-73
2022/06/23 08:25:40;;;;;;;2.88;1.65;;;22.10;99.90;;;;;;5019894;28;20033;-70
2022/06/23 08:28:19;;;;;;;6.45;2.08;;;22.20;99.90;;;;;;5020013;28;20045;-73
2022/06/23 08:31:06;;;;;;;2.17;1.58;;;22.30;99.90;;;;;;5028017;28;20036;-73
2022/06/23 08:33:33;;;;;;;2.10;1.45;;;22.40;99.90;;;;;;5021067;28;20068;-71
2022/06/23 08:36:07;;;;;;;3.80;2.00;;;22.50;99.90;;;;;;5018187;28;20041;-70
2022/06/23 08:38:47;;;;;;;2.30;1.40;;;22.70;99.90;;;;;;5015791;28;20030;-71
2022/06/23 08:41:49;;;;;;;2.00;1.17;;;22.80;99.90;;;;;;5020524;28;20121;-70
2022/06/23 08:44:44;;;;;;;1.60;1.35;;;22.90;99.90;;;;;;5020259;28;20029;-72
2022/06/23 08:47:12;;;;;;;1.98;1.38;;;23.00;99.90;;;;;;5020462;28;20056;-70
2022/06/23 08:50:13;;;;;;;6.18;1.52;;;23.10;99.90;;;;;;5022145;28;20053;-69
2022/06/23 08:53:14;;;;;;;2.88;1.60;;;23.30;99.90;;;;;;5021053;28;20033;-72
2022/06/23 08:56:01;;;;;;;3.28;1.85;;;23.40;99.90;;;;;;5020131;28;20514;-70
2022/06/23 08:58:34;;;;;;;5.28;2.60;;;23.50;99.90;;;;;;5021814;28;20100;-69
2022/06/23 09:01:42;;;;;;;2.95;2.08;;;23.50;99.90;;;;;;5019084;28;20029;-70
2022/06/23 09:04:20;;;;;;;4.05;1.67;;;23.50;99.90;;;;;;5020294;28;20050;-70
2022/06/23 09:06:54;;;;;;;1.50;1.35;;;23.70;99.90;;;;;;5018057;28;20038;-72
2022/06/23 09:09:42;;;;;;;2.75;1.55;;;23.70;99.90;;;;;;5020180;28;20037;-71
2022/06/23 09:12:30;;;;;;;2.45;1.55;;;23.90;99.90;;;;;;5018232;28;20034;-70
2022/06/23 09:15:11;;;;;;;2.65;1.58;;;24.00;99.90;;;;;;5026320;28;20062;-68
2022/06/23 09:18:01;;;;;;;1.90;1.15;;;24.20;99.90;;;;;;5017899;28;20038;-70
2022/06/23 09:21:02;;;;;;;1.50;1.20;;;24.40;99.90;;;;;;5012842;28;20033;-70
2022/06/23 09:23:51;;;;;;;2.13;1.27;;;24.50;99.90;;;;;;5017709;28;20021;-73
2022/06/23 09:26:55;;;;;;;1.45;1.10;;;24.60;99.90;;;;;;5015830;28;20049;-70
2022/06/23 09:29:48;;;;;;;3.38;1.48;;;24.70;99.90;;;;;;5021870;28;20041;-71
2022/06/23 09:32:32;;;;;;;;;;;;;;;;;;;;;
2022/06/23 09:35:28;;;;;;;7.05;1.90;;;25.00;99.90;;;;;;5022054;28;20124;-68
2022/06/23 09:38:11;;;;;;;;;;;25.10;99.90;;;;;;5023842;28;20029;-71
2022/06/23 09:41:14;;;;;;;3.85;1.42;;;25.10;99.90;;;;;;5022599;28;19917;-68
2022/06/23 09:44:10;;;;;;;1.48;1.23;;;25.20;99.90;;;;;;5024134;28;20439;-71
2022/06/23 09:46:54;;;;;;;19.60;1.35;;;25.30;99.90;;;;;;5023270;28;20603;-69
2022/06/23 09:49:22;;;;;;;;;;;25.40;99.90;;;;;;5024296;28;20049;-69
2022/06/23 09:51:57;;;;;;;4.22;1.42;;;25.40;99.90;;;;;;5023002;28;19909;-68
2022/06/23 09:54:48;;;;;;;2.42;1.50;;;25.50;99.90;;;;;;5024942;28;20042;-70
2022/06/23 09:57:32;;;;;;;4.82;1.77;;;25.50;99.90;;;;;;5025193;28;20033;-68
2022/06/23 10:00:06;;;;;;;2.72;1.50;;;25.50;99.90;;;;;;5024513;28;20029;-68
2022/06/23 10:02:54;;;;;;;1.92;1.55;;;25.60;99.90;;;;;;5023712;28;20045;-70
2022/06/23 10:05:40;;;;;;;1.63;1.27;;;25.60;99.90;;;;;;5024735;28;20038;-68
2022/06/23 10:08:19;;;;;;;1.10;0.90;;;25.70;99.90;;;;;;5025258;28;20060;-70
2022/06/23 10:10:59;;;;;;;3.20;1.70;;;25.70;99.90;;;;;;5021461;28;20441;-70
2022/06/23 10:13:34;;;;;;;1.55;1.05;;;25.80;99.90;;;;;;5024077;28;20044;-72
2022/06/23 10:16:23;;;;;;;2.70;1.38;;;25.90;99.90;;;;;;5019939;28;20447;-69
2022/06/23 10:19:26;;;;;;;2.33;1.25;;;25.90;99.90;;;;;;5022273;28;20036;-69
2022/06/23 10:22:22;;;;;;;7.57;1.35;;;25.90;99.90;;;;;;5022510;28;20038;-70
2022/06/23 10:24:57;;;;;;;2.40;1.35;;;26.10;99.90;;;;;;5023441;28;20445;-68
2022/06/23 10:27:29;;;;;;;1.63;1.23;;;26.20;99.90;;;;;;5023082;28;20028;-69
2022/06/23 10:30:07;;;;;;;1.63;1.20;;;26.40;99.90;;;;;;5024587;28;20049;-70
2022/06/23 10:32:54;;;;;;;4.10;1.40;;;26.60;99.90;;;;;;5022132;28;20092;-71
2022/06/23 10:35:33;;;;;;;1.83;1.13;;;26.80;99.90;;;;;;5021157;28;20062;-69
2022/06/23 10:38:13;;;;;;;1.30;0.73;;;27.00;99.90;;;;;;5024275;28;20030;-70
2022/06/23 10:40:54;;;;;;;7.45;1.55;;;27.10;99.90;;;;;;5024641;28;20084;-70
2022/06/23 10:43:35;;;;;;;3.95;1.95;;;27.10;99.90;;;;;;5018386;28;20052;-72
2022/06/23 10:46:17;;;;;;;1.40;1.13;;;27.10;99.90;;;;;;5019133;28;20041;-69
2022/06/23 10:49:14;;;;;;;1.50;1.23;;;27.10;99.90;;;;;;5020727;28;20025;-68
2022/06/23 10:52:14;;;;;;;2.47;1.48;;;27.20;99.90;;;;;;5021370;28;20018;-69
2022/06/23 10:55:15;;;;;;;1.98;0.90;;;27.40;99.90;;;;;;5018818;28;20065;-70
2022/06/23 10:58:16;;;;;;;1.50;0.90;;;27.50;99.90;;;;;;5014553;28;20026;-71
2022/06/23 11:04:28;;;;;;;2.17;1.23;;;27.70;99.90;;;;;;5019357;28;20049;-69
2022/06/23 11:07:15;;;;;;;3.60;1.08;;;27.70;99.90;;;;;;5018791;28;20029;-71
2022/06/23 11:09:52;;;;;;;3.08;1.27;;;27.60;99.90;;;;;;5018353;28;20034;-69
2022/06/23 11:12:55;;;;;;;2.60;1.15;;;27.70;99.90;;;;;;5018908;28;20076;-69
2022/06/23 11:15:41;;;;;;;1.02;0.82;;;27.90;99.90;;;;;;5021342;28;20030;-71
2022/06/23 11:18:44;;;;;;;2.83;1.08;;;28.00;99.90;;;;;;5019807;28;20200;-70
2022/06/23 11:21:41;;;;;;;1.27;0.93;;;28.10;99.90;;;;;;5020439;28;20052;-70
2022/06/23 11:24:54;;;;;;;1.70;1.00;;;28.30;99.90;;;;;;5022909;28;20041;-72
2022/06/23 11:27:51;;;;;;;2.53;1.17;;;28.40;99.90;;;;;;5020250;28;20080;-70
2022/06/23 11:30:45;;;;;;;4.10;1.33;;;28.40;99.90;;;;;;5020896;28;20034;-69
2022/06/23 11:33:41;;;;;;;1.15;0.75;;;28.70;99.90;;;;;;5020355;28;20397;-70
2022/06/23 11:36:26;;;;;;;1.10;0.65;;;28.80;99.90;;;;;;5018841;28;20038;-76
2022/06/23 11:40:10;;;;;;;2.17;1.13;;;28.90;99.90;;;;;;5020398;28;20061;-71
2022/06/23 11:43:37;;;;;;;3.80;1.10;;;29.10;99.90;;;;;;4928996;29;20460;-70
2022/06/23 11:46:36;;;;;;;;;;;;;;;;;;;;;
2022/06/23 11:49:22;;;;;;;3.00;0.82;;;29.20;99.90;;;;;;5020999;28;20132;-70
2022/06/23 11:52:10;;;;;;;1.45;0.90;;;29.20;99.90;;;;;;5019934;28;20049;-69
2022/06/23 11:55:06;;;;;;;1.35;1.02;;;29.30;99.90;;;;;;5021126;28;20061;-71
2022/06/23 11:57:52;;;;;;;1.48;0.73;;;29.20;99.90;;;;;;5019513;28;20056;-71
2022/06/23 12:00:24;;;;;;;0.90;0.60;;;29.20;99.90;;;;;;5020804;28;20022;-69
2022/06/23 12:03:08;;;;;;;3.42;1.10;;;29.30;99.90;;;;;;5021385;28;20133;-71
2022/06/23 12:05:52;;;;;;;3.45;0.82;;;29.30;99.20;;;;;;5021765;28;20061;-71
2022/06/23 12:08:30;;;;;;;1.02;0.63;;;29.60;99.90;;;;;;5021521;28;20030;-72
2022/06/23 12:11:08;;;;;;;1.63;0.80;;;29.90;99.00;;;;;;5013780;28;20896;-70
2022/06/23 12:13:42;;;;;;;1.35;0.90;;;30.10;99.90;;;;;;5021623;28;20042;-70
2022/06/23 12:16:08;;;;;;;;;;;30.20;99.90;;;;;;5021632;28;20372;-72
2022/06/23 12:18:58;;;;;;;1.27;0.98;;;30.20;96.80;;;;;;5021874;28;19987;-71
2022/06/23 12:22:16;;;;;;;0.80;0.60;;;30.30;97.60;;;;;;5021958;28;20400;-71
2022/06/23 12:25:17;;;;;;;1.23;0.75;;;30.50;97.20;;;;;;5025952;28;20037;-72
2022/06/23 12:28:19;;;;;;;4.70;0.73;;;30.70;95.40;;;;;;5021937;28;20026;-71
2022/06/23 12:31:24;;;;;;;0.93;0.75;;;30.70;96.60;;;;;;5023289;28;20026;-69
2022/06/23 12:34:06;;;;;;;1.48;0.82;;;30.80;94.90;;;;;;5020492;28;20395;-72
2022/06/23 12:36:51;;;;;;;;;;;30.90;96.40;;;;;;5020469;28;20437;-70
2022/06/23 12:40:09;;;;;;;1.75;0.95;;;31.00;94.80;;;;;;5021093;28;19918;-70
2022/06/23 12:43:30;;;;;;;1.45;0.85;;;31.10;95.70;;;;;;5024099;28;20129;-71
2022/06/23 12:46:22;;;;;;;1.00;0.40;;;31.20;93.20;;;;;;5019778;28;20045;-69
2022/06/23 12:48:51;;;;;;;0.70;0.60;;;31.30;95.70;;;;;;5020232;28;20034;-71
2022/06/23 12:51:28;;;;;;;1.98;0.98;;;31.30;95.70;;;;;;5020545;28;20101;-70
2022/06/23 12:54:39;;;;;;;1.30;0.70;;;31.30;95.40;;;;;;5020403;28;20033;-69
2022/06/23 12:57:23;;;;;;;2.90;1.15;;;31.50;93.00;;;;;;5018430;28;20042;-70
2022/06/23 13:00:13;;;;;;;;;;;;;;;;;;;;;
2022/06/23 13:03:01;;;;;;;0.70;0.45;;;31.60;92.80;;;;;;5019811;28;20453;-70
2022/06/23 13:05:49;;;;;;;1.73;0.63;;;31.70;92.90;;;;;;5018993;28;20030;-70
2022/06/23 13:08:35;;;;;;;0.90;0.60;;;31.90;92.50;;;;;;5021198;28;20057;-70
2022/06/23 13:14:15;;;;;;;1.35;0.70;;;32.50;93.00;;;;;;5048904;28;20070;-70
2022/06/23 13:17:21;;;;;;;2.88;0.75;;;32.80;92.50;;;;;;5019760;28;20088;-70
2022/06/23 13:20:22;;;;;;;1.50;1.00;;;33.10;91.00;;;;;;5020231;28;20506;-69
2022/06/23 13:22:54;;;;;;;1.15;0.65;;;33.20;89.30;;;;;;5019626;28;20030;-69
2022/06/23 13:25:34;;;;;;;3.00;0.70;;;33.30;91.60;;;;;;5019769;28;20056;-67
2022/06/23 13:28:13;;;;;;;0.60;0.45;;;33.50;90.60;;;;;;5020617;28;20362;-71
2022/06/23 13:30:47;;;;;;;3.08;0.70;;;33.70;92.10;;;;;;5018447;28;20033;-68
2022/06/23 13:33:47;;;;;;;2.63;0.60;;;33.70;85.80;;;;;;5019862;28;20030;-70
2022/06/23 13:36:24;;;;;;;0.93;0.80;;;33.70;80.60;;;;;;5019865;28;20030;-69
2022/06/23 13:39:40;;;;;;;0.65;0.43;;;33.60;84.40;;;;;;5018737;28;20128;-70
2022/06/23 13:42:20;;;;;;;1.02;0.68;;;33.80;80.20;;;;;;5021291;28;20057;-70
2022/06/23 13:44:56;;;;;;;0.77;0.40;;;34.20;83.40;;;;;;5017604;28;20029;-72
2022/06/23 13:47:31;;;;;;;1.42;0.82;;;34.30;83.20;;;;;;5018134;28;20053;-70
2022/06/23 13:50:26;;;;;;;;;;;;;;;;;;;;;
2022/06/23 13:53:29;;;;;;;0.88;0.60;;;34.70;83.30;;;;;;5017971;28;20089;-69
2022/06/23 13:56:27;;;;;;;1.35;0.73;;;34.90;80.30;;;;;;5012297;28;20454;-74
2022/06/23 13:59:09;;;;;;;2.30;0.93;;;35.20;82.50;;;;;;5018688;28;20037;-70
2022/06/23 14:02:26;;;;;;;0.73;0.73;;;35.50;84.70;;;;;;5013076;28;20049;-70
2022/06/23 14:05:43;;;;;;;0.63;0.50;;;35.80;77.20;;;;;;5017503;28;20041;-70
2022/06/23 14:08:25;;;;;;;2.42;0.80;;;36.00;78.60;;;;;;5047787;28;20063;-70
2022/06/23 14:11:30;;;;;;;1.42;0.60;;;36.20;75.00;;;;;;5047455;28;20025;-69
2022/06/23 14:14:04;;;;;;;1.48;0.88;;;36.40;77.60;;;;;;5046125;28;20083;-69
2022/06/23 14:17:04;;;;;;;1.00;0.57;;;36.40;76.90;;;;;;5050772;28;20409;-69
2022/06/23 14:20:09;;;;;;;2.35;0.25;;;36.40;74.20;;;;;;5023794;28;20030;-70
2022/06/23 14:22:54;;;;;;;1.27;0.80;;;36.50;70.80;;;;;;5019305;28;20030;-70
2022/06/23 14:25:46;;;;;;;0.80;0.50;;;36.60;70.50;;;;;;5021213;28;20048;-71
2022/06/23 14:28:32;;;;;;;1.00;0.65;;;36.60;73.70;;;;;;5021504;28;20022;-72
2022/06/23 14:31:53;;;;;;;2.80;0.73;;;36.90;72.40;;;;;;5021794;28;20041;-70
2022/06/23 14:34:48;;;;;;;0.65;0.50;;;36.80;67.70;;;;;;5021192;28;20056;-70
2022/06/23 14:37:51;;;;;;;1.15;0.60;;;36.90;68.40;;;;;;5019553;28;20046;-70
2022/06/23 14:40:22;;;;;;;3.35;0.77;;;36.80;65.30;;;;;;5020373;28;20026;-72